Time;durP1;ratioP1;P1;durP2;ratioP2;P2;SDS_P1;SDS_P2;PMS_P1;PMS_P2;Temp;Humidity;BMP_temperature;BMP_pressure;BME280_temperature;BME280_humidity;BME280_pressure;Samples;Min_cycle;Max_cycle;Signal;HPM_P1;HPM_P2
2023/03/11 00:02:11;;;;;;;12.53;3.63;;;2.10;99.90;;;;;;5096770;28;20659;-58
2023/03/11 00:04:37;;;;;;;8.00;3.20;;;2.00;99.90;;;;;;5096793;28;20192;-58
2023/03/11 00:07:06;;;;;;;7.87;3.07;;;1.80;99.90;;;;;;5096669;28;20169;-57
2023/03/11 00:09:32;;;;;;;5.87;3.10;;;1.90;99.90;;;;;;5096578;28;20268;-58
2023/03/11 00:11:58;;;;;;;9.20;3.03;;;1.90;99.90;;;;;;5096758;28;20235;-58
2023/03/11 00:14:23;;;;;;;11.63;3.30;;;1.90;99.90;;;;;;5096877;28;20175;-58
2023/03/11 00:16:49;;;;;;;9.57;3.47;;;2.00;99.90;;;;;;5096640;28;20223;-58
2023/03/11 00:19:15;;;;;;;9.83;3.90;;;2.00;99.90;;;;;;5096517;28;20177;-58
2023/03/11 00:21:40;;;;;;;7.03;3.40;;;2.00;99.90;;;;;;5096417;28;20204;-58
2023/03/11 00:24:06;;;;;;;10.13;3.30;;;2.00;99.90;;;;;;5096079;28;20234;-58
2023/03/11 00:26:32;;;;;;;6.73;2.93;;;1.90;99.90;;;;;;5096595;28;20599;-58
2023/03/11 00:28:57;;;;;;;6.90;3.20;;;1.90;99.90;;;;;;5096477;28;20508;-58
2023/03/11 00:31:25;;;;;;;8.23;3.23;;;1.90;99.90;;;;;;5096254;28;20520;-58
2023/03/11 00:33:52;;;;;;;9.53;3.50;;;1.90;99.90;;;;;;5096281;28;20281;-58
2023/03/11 00:36:36;;;;;;;11.70;4.00;;;1.80;99.90;;;;;;5096153;28;20172;-59
2023/03/11 00:39:06;;;;;;;7.93;3.00;;;1.80;99.90;;;;;;5096469;28;20188;-58
2023/03/11 00:41:33;;;;;;;6.90;2.83;;;1.80;99.90;;;;;;5096193;28;20276;-58
2023/03/11 00:43:59;;;;;;;10.07;3.37;;;1.90;99.90;;;;;;5096001;28;20609;-58
2023/03/11 00:46:25;;;;;;;7.63;3.27;;;1.90;99.90;;;;;;5095983;28;20181;-58
2023/03/11 00:48:51;;;;;;;7.23;3.30;;;2.00;99.90;;;;;;5095954;28;20651;-58
2023/03/11 00:51:17;;;;;;;10.77;3.53;;;2.00;99.90;;;;;;5095809;28;20632;-58
2023/03/11 00:53:43;;;;;;;7.20;3.33;;;2.10;99.90;;;;;;5096014;28;20184;-58
2023/03/11 00:56:12;;;;;;;7.80;3.20;;;2.20;99.90;;;;;;5095954;28;20188;-58
2023/03/11 00:58:38;;;;;;;6.27;2.77;;;2.20;99.90;;;;;;5095819;28;20575;-58
2023/03/11 01:01:09;;;;;;;11.23;3.23;;;2.20;99.90;;;;;;5095712;28;20621;-58
2023/03/11 01:03:35;;;;;;;8.13;3.03;;;2.20;99.90;;;;;;5095485;28;20206;-58
2023/03/11 01:06:01;;;;;;;8.93;3.20;;;2.20;99.90;;;;;;5095055;28;20238;-58
2023/03/11 01:08:28;;;;;;;8.07;3.40;;;2.10;99.90;;;;;;5095508;28;20203;-58
2023/03/11 01:10:54;;;;;;;9.20;2.87;;;2.20;99.90;;;;;;5095430;28;20633;-59
2023/03/11 01:13:20;;;;;;;6.10;2.83;;;2.20;99.90;;;;;;5095382;28;20192;-58
2023/03/11 01:15:45;;;;;;;6.17;2.73;;;2.30;99.90;;;;;;5095488;28;20174;-58
2023/03/11 01:18:12;;;;;;;6.70;3.30;;;2.30;99.90;;;;;;5095255;28;20197;-58
2023/03/11 01:20:38;;;;;;;7.10;2.60;;;2.40;99.90;;;;;;5095397;28;20178;-58
2023/03/11 01:23:05;;;;;;;9.87;2.70;;;2.30;99.90;;;;;;5095192;28;20229;-58
2023/03/11 01:25:31;;;;;;;8.83;3.07;;;2.20;99.90;;;;;;5095332;28;20297;-58
2023/03/11 01:27:57;;;;;;;11.70;2.60;;;2.10;99.90;;;;;;5094970;28;20271;-58
2023/03/11 01:30:24;;;;;;;7.67;2.73;;;2.10;99.90;;;;;;5093873;28;20181;-58
2023/03/11 01:32:51;;;;;;;5.77;2.60;;;2.10;99.90;;;;;;5094994;28;20272;-58
2023/03/11 01:35:19;;;;;;;9.37;2.87;;;2.00;99.90;;;;;;5095203;28;20173;-58
2023/03/11 01:37:45;;;;;;;7.10;2.70;;;2.00;99.90;;;;;;5094844;28;20180;-58
2023/03/11 01:40:20;;;;;;;10.47;3.37;;;2.00;99.90;;;;;;5094976;28;20610;-58
2023/03/11 01:42:46;;;;;;;8.60;3.33;;;1.90;99.90;;;;;;5094855;28;20602;-58
2023/03/11 01:45:40;;;;;;;10.43;3.20;;;1.80;99.90;;;;;;5094862;28;20184;-58
2023/03/11 01:48:07;;;;;;;10.07;3.50;;;1.90;99.90;;;;;;5094933;28;20169;-59
2023/03/11 01:50:41;;;;;;;5.87;3.00;;;1.80;99.90;;;;;;5094798;28;20545;-58
2023/03/11 01:53:08;;;;;;;7.10;3.47;;;1.80;99.90;;;;;;5093632;28;20182;-58
2023/03/11 01:55:34;;;;;;;7.77;3.20;;;1.90;99.90;;;;;;5094646;28;20207;-58
2023/03/11 01:58:03;;;;;;;8.30;3.27;;;2.00;99.90;;;;;;5094492;28;20205;-58
2023/03/11 02:00:30;;;;;;;8.17;3.07;;;2.00;99.90;;;;;;5094667;28;20173;-59
2023/03/11 02:02:58;;;;;;;10.23;3.43;;;1.90;99.90;;;;;;5094352;28;20634;-58
2023/03/11 02:05:24;;;;;;;10.63;3.60;;;1.90;99.90;;;;;;5094394;28;20205;-58
2023/03/11 02:07:53;;;;;;;8.63;3.00;;;2.00;99.90;;;;;;5094434;28;20177;-58
2023/03/11 02:10:19;;;;;;;7.43;2.73;;;2.00;99.90;;;;;;5094383;28;20233;-58
2023/03/11 02:12:47;;;;;;;7.67;3.27;;;2.00;99.90;;;;;;5094528;28;20243;-58
2023/03/11 02:15:13;;;;;;;7.43;3.03;;;1.80;99.90;;;;;;5094409;28;20177;-58
2023/03/11 02:17:41;;;;;;;3.80;3.00;;;1.80;99.90;;;;;;5093689;28;20176;-58
2023/03/11 02:20:27;;;;;;;8.17;3.47;;;1.90;99.90;;;;;;5093925;28;20181;-58
2023/03/11 02:22:56;;;;;;;8.13;3.33;;;1.90;99.90;;;;;;5093782;28;20262;-59
2023/03/11 02:25:59;;;;;;;8.47;3.13;;;2.00;99.90;;;;;;5093910;28;20581;-58
2023/03/11 02:28:26;;;;;;;5.10;2.80;;;1.90;99.90;;;;;;5082584;28;20189;-58
2023/03/11 02:30:54;;;;;;;8.57;3.10;;;2.00;99.90;;;;;;5093994;28;20206;-58
2023/03/11 02:33:22;;;;;;;9.20;3.53;;;1.90;99.90;;;;;;5094073;28;20185;-58
2023/03/11 02:35:47;;;;;;;10.40;3.27;;;1.80;99.90;;;;;;5092558;28;20182;-58
2023/03/11 02:38:13;;;;;;;7.03;3.43;;;1.70;99.90;;;;;;5092936;28;20185;-58
2023/03/11 02:41:00;;;;;;;9.07;3.33;;;1.80;99.90;;;;;;5093918;28;20665;-58
2023/03/11 02:43:42;;;;;;;7.00;3.10;;;1.80;99.90;;;;;;5093655;28;20209;-58
2023/03/11 02:46:09;;;;;;;5.33;2.90;;;1.70;99.90;;;;;;5093885;28;20223;-58
2023/03/11 02:48:36;;;;;;;10.90;3.87;;;1.70;99.90;;;;;;5093624;28;20165;-58
2023/03/11 02:51:02;;;;;;;8.97;3.17;;;1.70;99.90;;;;;;5093714;28;20172;-58
2023/03/11 02:53:33;;;;;;;8.37;3.13;;;1.70;99.90;;;;;;5093727;28;20212;-58
2023/03/11 02:55:59;;;;;;;7.23;3.37;;;1.70;99.90;;;;;;5092369;28;20177;-58
2023/03/11 02:58:24;;;;;;;7.97;3.30;;;1.60;99.90;;;;;;5093479;28;20179;-58
2023/03/11 03:00:50;;;;;;;7.67;3.17;;;1.60;99.90;;;;;;5093693;28;20310;-58
2023/03/11 03:03:16;;;;;;;7.17;3.23;;;1.50;99.90;;;;;;5093674;28;20221;-58
2023/03/11 03:05:41;;;;;;;10.43;4.63;;;1.50;99.90;;;;;;5093460;28;20177;-58
2023/03/11 03:08:07;;;;;;;9.57;4.43;;;1.40;99.90;;;;;;5093537;28;20184;-58
2023/03/11 03:10:33;;;;;;;8.27;4.20;;;1.40;99.90;;;;;;5093333;28;20185;-58
2023/03/11 03:12:59;;;;;;;10.63;4.63;;;1.50;99.90;;;;;;5093209;28;20177;-58
2023/03/11 03:15:24;;;;;;;9.60;4.23;;;1.50;99.90;;;;;;5093464;28;20173;-58
2023/03/11 03:17:50;;;;;;;10.17;4.43;;;1.40;99.90;;;;;;5093398;28;20181;-58
2023/03/11 03:20:17;;;;;;;8.47;4.50;;;1.40;99.90;;;;;;5093170;28;20268;-58
2023/03/11 03:22:42;;;;;;;11.50;4.77;;;1.40;99.90;;;;;;5093105;28;20241;-59
2023/03/11 03:25:09;;;;;;;7.00;4.50;;;1.40;99.90;;;;;;5093280;28;20223;-58
2023/03/11 03:27:36;;;;;;;10.87;4.30;;;1.50;99.90;;;;;;5093120;28;20173;-58
2023/03/11 03:30:03;;;;;;;11.30;4.63;;;1.50;99.90;;;;;;5095404;28;20179;-58
2023/03/11 03:32:28;;;;;;;9.80;4.53;;;1.60;99.90;;;;;;5097481;28;20181;-58
2023/03/11 03:34:57;;;;;;;8.67;4.13;;;1.60;99.90;;;;;;5097411;28;20589;-58
2023/03/11 03:37:25;;;;;;;7.57;3.80;;;1.70;99.90;;;;;;5097328;28;20175;-58
2023/03/11 03:39:50;;;;;;;7.87;3.77;;;1.90;99.90;;;;;;5097206;28;20177;-58
2023/03/11 03:42:16;;;;;;;8.43;4.00;;;1.80;99.90;;;;;;5097118;28;20668;-58
2023/03/11 03:44:42;;;;;;;8.07;3.60;;;1.80;99.90;;;;;;5097075;28;20185;-59
2023/03/11 03:47:07;;;;;;;9.80;4.27;;;1.90;99.90;;;;;;5097039;28;20184;-58
2023/03/11 03:49:33;;;;;;;7.57;3.63;;;1.80;99.90;;;;;;5097101;28;20537;-58
2023/03/11 03:51:58;;;;;;;8.80;3.60;;;1.80;99.90;;;;;;5097071;28;20640;-58
2023/03/11 03:54:24;;;;;;;10.80;3.97;;;1.80;99.90;;;;;;5097227;28;20626;-58
2023/03/11 03:56:50;;;;;;;6.00;3.50;;;1.70;99.90;;;;;;5095646;28;20539;-58
2023/03/11 03:59:15;;;;;;;9.50;3.57;;;1.70;99.90;;;;;;5097079;28;20195;-58
2023/03/11 04:01:41;;;;;;;8.07;3.13;;;1.70;99.90;;;;;;5096920;28;20185;-59
2023/03/11 04:04:07;;;;;;;5.40;3.50;;;1.60;99.90;;;;;;5096828;28;20292;-58
2023/03/11 04:06:33;;;;;;;7.03;3.40;;;1.50;99.90;;;;;;5096764;28;20206;-58
2023/03/11 04:08:59;;;;;;;7.63;3.67;;;1.50;99.90;;;;;;5096769;28;20206;-58
2023/03/11 04:11:24;;;;;;;5.93;3.30;;;1.40;99.90;;;;;;5096578;28;20200;-58
2023/03/11 04:13:50;;;;;;;5.97;3.60;;;1.30;99.90;;;;;;5096848;28;20185;-58
2023/03/11 04:16:19;;;;;;;7.50;3.37;;;1.30;99.90;;;;;;5095410;28;20545;-58
2023/03/11 04:18:45;;;;;;;8.33;3.40;;;1.30;99.90;;;;;;5096468;28;20173;-58
2023/03/11 04:21:11;;;;;;;11.30;3.90;;;1.30;99.90;;;;;;5096479;28;20231;-58
2023/03/11 04:23:40;;;;;;;6.33;3.53;;;1.30;99.90;;;;;;5096080;28;20264;-58
2023/03/11 04:26:06;;;;;;;5.37;2.87;;;1.20;99.90;;;;;;5096272;28;20170;-58
2023/03/11 04:28:31;;;;;;;8.53;3.60;;;1.30;99.90;;;;;;5096466;28;20696;-58
2023/03/11 04:30:57;;;;;;;9.63;3.47;;;1.40;99.90;;;;;;5096414;28;20213;-58
2023/03/11 04:33:23;;;;;;;7.37;3.40;;;1.30;99.90;;;;;;5096406;28;20231;-58
2023/03/11 04:35:49;;;;;;;7.57;3.60;;;1.40;99.90;;;;;;5096212;28;20181;-58
2023/03/11 04:38:15;;;;;;;6.27;3.27;;;1.40;99.90;;;;;;5094997;28;20188;-58
2023/03/11 04:40:40;;;;;;;6.57;3.43;;;1.50;99.90;;;;;;5095423;28;20534;-58
2023/03/11 04:43:06;;;;;;;5.97;3.47;;;1.50;99.90;;;;;;5095681;28;20370;-59
2023/03/11 04:45:32;;;;;;;6.17;3.60;;;1.50;99.90;;;;;;5096142;28;20192;-58
2023/03/11 04:47:58;;;;;;;9.90;4.10;;;1.60;99.90;;;;;;5096010;28;20260;-58
2023/03/11 04:50:23;;;;;;;8.60;3.70;;;1.60;99.90;;;;;;5095955;28;20169;-58
2023/03/11 04:52:49;;;;;;;6.73;4.03;;;1.60;99.90;;;;;;5095941;28;20189;-58
2023/03/11 04:55:15;;;;;;;7.27;3.60;;;1.60;99.90;;;;;;5095710;28;20332;-58
2023/03/11 04:57:42;;;;;;;9.60;3.87;;;1.40;99.90;;;;;;5095886;28;20167;-59
2023/03/11 05:00:10;;;;;;;7.17;3.53;;;1.40;99.90;;;;;;5095853;28;20641;-58
2023/03/11 05:02:38;;;;;;;9.70;3.60;;;1.30;99.90;;;;;;5095573;28;20206;-58
2023/03/11 05:05:05;;;;;;;4.40;3.40;;;1.30;99.90;;;;;;5095639;28;20173;-58
2023/03/11 05:07:31;;;;;;;6.97;3.07;;;1.30;99.90;;;;;;5095480;28;20181;-59
2023/03/11 05:09:56;;;;;;;8.87;3.37;;;1.20;99.90;;;;;;5095749;28;20189;-58
2023/03/11 05:12:22;;;;;;;7.20;3.77;;;1.30;99.90;;;;;;5095633;28;20261;-58
2023/03/11 05:14:47;;;;;;;7.13;3.43;;;1.20;99.90;;;;;;5095579;28;20547;-58
2023/03/11 05:17:13;;;;;;;7.40;3.60;;;1.20;99.90;;;;;;5095515;28;20177;-58
2023/03/11 05:19:40;;;;;;;5.87;3.20;;;1.20;99.90;;;;;;5095364;28;20191;-58
2023/03/11 05:22:06;;;;;;;10.67;3.97;;;1.20;99.90;;;;;;5095120;28;20261;-59
2023/03/11 05:24:33;;;;;;;7.30;3.50;;;1.20;99.90;;;;;;5095102;28;20209;-58
2023/03/11 05:26:58;;;;;;;6.37;3.27;;;1.20;99.90;;;;;;5095181;28;20180;-59
2023/03/11 05:29:24;;;;;;;7.07;3.67;;;1.10;99.90;;;;;;5095257;28;20529;-58
2023/03/11 05:31:50;;;;;;;6.90;3.40;;;1.10;99.90;;;;;;5095209;28;20632;-58
2023/03/11 05:34:16;;;;;;;7.60;4.20;;;1.10;99.90;;;;;;5095023;28;20176;-58
2023/03/11 05:36:43;;;;;;;9.87;3.47;;;1.10;99.90;;;;;;5094917;28;20264;-58
2023/03/11 05:39:09;;;;;;;6.70;3.97;;;1.10;99.90;;;;;;5094871;28;20256;-59
2023/03/11 05:41:34;;;;;;;9.87;3.60;;;1.10;99.90;;;;;;5095096;28;20241;-58
2023/03/11 05:44:00;;;;;;;8.77;4.03;;;1.10;99.90;;;;;;5094905;28;20245;-58
2023/03/11 05:46:26;;;;;;;8.80;3.90;;;1.10;99.90;;;;;;5093670;28;20545;-58
2023/03/11 05:48:52;;;;;;;7.90;4.03;;;1.10;99.90;;;;;;5094784;28;20662;-58
2023/03/11 05:51:17;;;;;;;6.23;4.00;;;1.10;99.90;;;;;;5094674;28;20298;-58
2023/03/11 05:53:47;;;;;;;8.67;3.97;;;1.00;99.90;;;;;;5094672;28;20192;-58
2023/03/11 05:56:13;;;;;;;6.57;3.80;;;1.00;99.90;;;;;;5094730;28;20197;-58
2023/03/11 05:58:40;;;;;;;7.10;3.97;;;1.00;99.90;;;;;;5094749;28;20535;-58
2023/03/11 06:01:10;;;;;;;6.53;4.20;;;1.10;99.90;;;;;;5094617;28;20184;-59
2023/03/11 06:03:37;;;;;;;7.00;4.47;;;1.00;99.90;;;;;;5093192;28;20251;-58
2023/03/11 06:06:04;;;;;;;6.57;4.23;;;0.90;99.90;;;;;;5094392;28;20180;-59
2023/03/11 06:08:33;;;;;;;8.60;4.43;;;0.90;99.90;;;;;;5094583;28;20662;-59
2023/03/11 06:11:08;;;;;;;5.40;4.30;;;0.90;99.90;;;;;;5094424;28;20178;-59
2023/03/11 06:13:35;;;;;;;9.63;4.67;;;1.00;99.90;;;;;;5094147;28;20570;-58
2023/03/11 06:16:01;;;;;;;13.63;4.87;;;0.90;99.90;;;;;;5094209;28;20547;-59
2023/03/11 06:18:26;;;;;;;7.53;4.10;;;0.90;99.90;;;;;;5094154;28;20172;-59
2023/03/11 06:20:53;;;;;;;9.50;4.97;;;0.90;99.90;;;;;;5094062;28;20179;-58
2023/03/11 06:23:19;;;;;;;8.43;4.80;;;0.90;99.90;;;;;;5094157;28;20264;-59
2023/03/11 06:25:54;;;;;;;10.80;4.77;;;0.90;99.90;;;;;;5094263;28;20589;-59
2023/03/11 06:28:20;;;;;;;9.13;5.17;;;0.80;99.90;;;;;;5094042;28;20259;-58
2023/03/11 06:30:46;;;;;;;8.80;4.20;;;0.90;99.90;;;;;;5094013;28;20206;-59
2023/03/11 06:33:13;;;;;;;8.47;4.40;;;0.90;99.90;;;;;;5093870;28;20184;-56
2023/03/11 06:35:38;;;;;;;7.73;5.23;;;0.90;99.90;;;;;;5093402;28;20670;-54
2023/03/11 06:38:04;;;;;;;10.00;5.10;;;1.00;99.90;;;;;;5093888;28;20169;-56
2023/03/11 06:40:30;;;;;;;7.20;4.90;;;0.90;99.90;;;;;;5093689;28;20191;-57
2023/03/11 06:42:56;;;;;;;6.70;4.93;;;0.90;99.90;;;;;;5093557;28;20301;-56
2023/03/11 06:45:21;;;;;;;10.53;4.87;;;1.00;99.90;;;;;;5093592;28;20183;-57
2023/03/11 06:47:47;;;;;;;7.63;4.93;;;1.00;99.90;;;;;;5093570;28;20724;-56
2023/03/11 06:50:13;;;;;;;9.87;5.27;;;1.10;99.90;;;;;;5093740;28;20227;-56
2023/03/11 06:52:38;;;;;;;6.70;4.90;;;1.10;99.90;;;;;;5093674;28;20593;-55
2023/03/11 06:55:04;;;;;;;7.90;4.90;;;1.10;99.90;;;;;;5093540;28;20177;-55
2023/03/11 06:57:31;;;;;;;11.17;4.93;;;1.20;99.90;;;;;;5093323;28;20230;-57
2023/03/11 06:59:57;;;;;;;8.83;5.17;;;1.20;99.90;;;;;;5093408;28;20185;-56
2023/03/11 07:02:22;;;;;;;10.87;5.30;;;1.40;99.90;;;;;;5093181;28;20187;-55
2023/03/11 07:04:49;;;;;;;9.37;5.30;;;1.50;99.90;;;;;;5092951;28;20219;-55
2023/03/11 07:07:14;;;;;;;9.50;5.70;;;1.60;99.90;;;;;;5094192;28;20650;-55
2023/03/11 07:09:40;;;;;;;8.47;5.30;;;1.60;99.90;;;;;;5092412;28;20189;-56
2023/03/11 07:12:06;;;;;;;10.27;5.53;;;1.70;99.90;;;;;;5093143;28;20176;-56
2023/03/11 07:14:32;;;;;;;8.90;5.33;;;1.80;99.90;;;;;;5093044;28;20188;-55
2023/03/11 07:16:58;;;;;;;11.10;5.40;;;1.90;99.90;;;;;;5092941;28;20174;-56
2023/03/11 07:19:23;;;;;;;7.53;5.53;;;2.00;99.90;;;;;;5092988;28;20181;-58
2023/03/11 07:21:49;;;;;;;7.75;5.32;;;2.10;99.90;;;;;;5092752;28;20184;-56
2023/03/11 07:24:15;;;;;;;11.30;6.43;;;2.10;99.90;;;;;;5092958;28;20550;-54
2023/03/11 07:26:41;;;;;;;16.48;9.15;;;2.20;99.90;;;;;;5093091;28;20271;-58
2023/03/11 07:29:09;;;;;;;24.23;14.77;;;2.30;99.90;;;;;;5092841;28;20166;-55
2023/03/11 07:31:35;;;;;;;21.20;13.03;;;2.40;99.90;;;;;;5092568;28;20177;-56
2023/03/11 07:34:04;;;;;;;19.30;11.32;;;2.50;99.90;;;;;;5093002;28;20636;-55
2023/03/11 07:36:30;;;;;;;17.70;10.90;;;2.70;99.90;;;;;;5093039;28;20173;-55
2023/03/11 07:39:02;;;;;;;13.20;9.70;;;2.60;99.90;;;;;;5092558;28;20176;-56
2023/03/11 07:41:32;;;;;;;17.15;7.13;;;2.80;99.90;;;;;;5101266;28;20188;-56
2023/03/11 07:43:59;;;;;;;9.10;6.40;;;2.90;99.90;;;;;;5112755;28;20203;-56
2023/03/11 07:46:27;;;;;;;8.77;5.82;;;3.00;99.90;;;;;;5091796;28;20185;-54
2023/03/11 07:48:53;;;;;;;16.45;6.68;;;3.10;99.90;;;;;;5092971;28;20172;-56
2023/03/11 07:51:20;;;;;;;12.05;6.70;;;3.10;99.90;;;;;;5092693;28;20169;-56
2023/03/11 07:53:47;;;;;;;13.07;5.93;;;3.20;99.90;;;;;;5092743;28;20182;-57
2023/03/11 07:56:17;;;;;;;9.32;5.38;;;3.30;99.90;;;;;;5092705;28;20188;-56
2023/03/11 07:58:43;;;;;;;10.15;5.80;;;3.50;99.90;;;;;;5092661;28;20171;-57
2023/03/11 08:01:14;;;;;;;7.53;5.43;;;3.60;99.90;;;;;;5092086;28;20181;-57
2023/03/11 08:03:41;;;;;;;12.45;6.25;;;3.50;99.90;;;;;;5092792;28;20308;-56
2023/03/11 08:06:18;;;;;;;9.63;5.60;;;3.70;99.90;;;;;;5092570;28;20271;-57
2023/03/11 08:08:44;;;;;;;10.52;5.90;;;3.90;99.90;;;;;;5092423;28;20183;-57
2023/03/11 08:11:14;;;;;;;9.20;5.50;;;4.00;99.90;;;;;;5092190;28;20174;-56
2023/03/11 08:13:41;;;;;;;10.38;5.43;;;3.90;99.90;;;;;;5092613;28;20185;-56
2023/03/11 08:16:08;;;;;;;7.22;5.28;;;4.00;99.90;;;;;;5094532;28;20555;-57
2023/03/11 08:18:34;;;;;;;7.15;4.57;;;4.20;99.90;;;;;;5096683;28;20181;-54
2023/03/11 08:21:05;;;;;;;6.28;4.05;;;4.40;99.90;;;;;;5096608;28;20170;-56
2023/03/11 08:23:31;;;;;;;11.25;5.00;;;4.40;99.90;;;;;;5095930;28;20224;-57
2023/03/11 08:25:56;;;;;;;8.50;4.72;;;4.50;99.90;;;;;;5096246;28;20707;-55
2023/03/11 08:28:22;;;;;;;9.23;4.80;;;4.60;99.90;;;;;;5096615;28;20178;-55
2023/03/11 08:30:48;;;;;;;9.65;5.00;;;4.70;99.90;;;;;;5096422;28;20174;-56
2023/03/11 08:33:13;;;;;;;9.48;4.57;;;4.90;99.90;;;;;;5096609;28;20212;-56
2023/03/11 08:35:39;;;;;;;11.20;5.25;;;5.00;99.90;;;;;;5096343;28;20177;-57
2023/03/11 08:38:04;;;;;;;7.35;4.90;;;5.00;99.90;;;;;;5096287;28;20631;-55
2023/03/11 08:40:30;;;;;;;12.82;4.57;;;5.00;99.90;;;;;;5095959;28;20238;-57
2023/03/11 08:42:56;;;;;;;9.20;4.30;;;5.20;99.90;;;;;;5096106;28;20224;-55
2023/03/11 08:45:22;;;;;;;5.53;3.63;;;5.40;99.90;;;;;;5095321;28;20263;-56
2023/03/11 08:47:48;;;;;;;9.00;3.95;;;5.50;99.90;;;;;;5096140;28;20199;-56
2023/03/11 08:50:16;;;;;;;8.05;3.90;;;5.70;99.90;;;;;;5094782;28;20201;-56
2023/03/11 08:52:42;;;;;;;9.85;4.03;;;5.60;99.90;;;;;;5095645;28;20200;-55
2023/03/11 08:55:10;;;;;;;6.72;2.85;;;5.80;99.90;;;;;;5095482;28;20676;-57
2023/03/11 08:57:37;;;;;;;6.35;2.97;;;5.80;99.90;;;;;;5095807;28;20185;-56
2023/03/11 09:00:04;;;;;;;4.45;2.30;;;5.90;99.90;;;;;;5095712;28;20185;-55
2023/03/11 09:02:29;;;;;;;7.13;2.42;;;6.00;99.90;;;;;;5095734;28;20177;-55
2023/03/11 09:04:55;;;;;;;6.10;2.40;;;6.00;99.90;;;;;;5095722;28;20208;-57
2023/03/11 09:07:21;;;;;;;7.85;2.88;;;6.20;99.90;;;;;;5095499;28;20234;-55
2023/03/11 09:09:46;;;;;;;6.57;2.35;;;6.30;99.90;;;;;;5095458;28;20176;-55
2023/03/11 09:12:13;;;;;;;6.40;2.05;;;6.40;99.90;;;;;;5095856;28;20200;-55
2023/03/11 09:14:40;;;;;;;4.50;1.77;;;6.60;99.90;;;;;;5095648;28;20189;-54
2023/03/11 09:17:06;;;;;;;3.70;1.85;;;6.70;99.90;;;;;;5095496;28;20178;-56
2023/03/11 09:19:32;;;;;;;8.38;1.92;;;6.70;99.90;;;;;;5095329;28;20671;-56
2023/03/11 09:22:02;;;;;;;4.82;1.45;;;6.80;99.90;;;;;;5095123;28;20178;-55
2023/03/11 09:24:31;;;;;;;3.95;1.45;;;6.50;99.90;;;;;;5095158;28;20206;-56
2023/03/11 09:26:57;;;;;;;4.80;1.50;;;6.60;99.90;;;;;;5093575;28;20234;-56
2023/03/11 09:29:22;;;;;;;4.80;1.60;;;6.60;99.90;;;;;;5095216;28;20685;-54
2023/03/11 09:31:48;;;;;;;4.22;1.40;;;6.90;99.90;;;;;;5095113;28;20177;-54
2023/03/11 09:34:14;;;;;;;4.80;1.92;;;7.10;99.90;;;;;;5095080;28;20177;-54
2023/03/11 09:36:43;;;;;;;4.40;1.70;;;7.30;99.90;;;;;;5094975;28;20197;-54
2023/03/11 09:39:09;;;;;;;5.55;1.67;;;7.40;99.90;;;;;;5095000;28;20181;-53
2023/03/11 09:42:04;;;;;;;4.65;1.60;;;7.50;99.90;;;;;;5095066;28;20181;-55
2023/03/11 09:44:40;;;;;;;5.60;1.70;;;7.60;99.90;;;;;;5091688;28;20232;-55
2023/03/11 09:47:14;;;;;;;5.65;1.75;;;7.60;99.90;;;;;;5094750;28;20256;-56
2023/03/11 09:49:58;;;;;;;2.92;1.50;;;7.70;99.90;;;;;;5094909;28;20177;-54
2023/03/11 09:52:34;;;;;;;4.10;1.60;;;7.90;99.90;;;;;;5094834;28;20175;-56
2023/03/11 09:55:02;;;;;;;6.35;1.73;;;7.90;99.90;;;;;;5094449;28;20236;-56
2023/03/11 09:57:32;;;;;;;5.40;1.85;;;8.00;99.90;;;;;;5093959;28;20166;-56
2023/03/11 10:00:02;;;;;;;6.07;1.58;;;7.90;99.90;;;;;;5094492;28;20170;-56
2023/03/11 10:02:29;;;;;;;5.18;1.67;;;8.00;99.90;;;;;;5094167;28;20166;-56
2023/03/11 10:05:12;;;;;;;4.90;1.70;;;7.90;99.90;;;;;;5093890;28;20648;-56
2023/03/11 10:07:46;;;;;;;3.85;2.00;;;8.00;99.90;;;;;;5093859;28;20176;-56
2023/03/11 10:10:16;;;;;;;3.53;1.60;;;8.20;99.90;;;;;;5093961;28;20260;-55
2023/03/11 10:12:54;;;;;;;5.70;1.67;;;8.50;99.90;;;;;;5094306;28;20211;-57
2023/03/11 10:15:56;;;;;;;4.97;1.95;;;8.60;99.90;;;;;;5093707;28;20525;-56
2023/03/11 10:18:37;;;;;;;5.03;1.75;;;8.60;99.90;;;;;;5093743;28;20165;-55
2023/03/11 10:21:35;;;;;;;6.63;1.88;;;8.60;99.90;;;;;;5093829;28;20165;-55
2023/03/11 10:24:17;;;;;;;5.90;1.85;;;8.50;99.90;;;;;;5093684;28;20229;-56
2023/03/11 10:26:50;;;;;;;6.53;2.00;;;8.60;99.90;;;;;;5093734;28;20178;-57
2023/03/11 10:29:31;;;;;;;4.68;1.77;;;8.50;99.90;;;;;;5093559;28;20177;-55
2023/03/11 10:32:04;;;;;;;5.50;1.77;;;8.50;99.90;;;;;;5093570;28;20219;-56
2023/03/11 10:34:31;;;;;;;3.20;1.52;;;8.50;99.90;;;;;;5093469;28;20265;-57
2023/03/11 10:37:26;;;;;;;6.78;1.92;;;8.60;99.90;;;;;;5093355;28;20182;-55
2023/03/11 10:39:52;;;;;;;3.83;1.63;;;8.70;99.90;;;;;;5092620;28;20180;-54
2023/03/11 10:42:24;;;;;;;5.53;1.70;;;8.70;99.90;;;;;;5093417;28;20177;-58
2023/03/11 10:44:50;;;;;;;5.85;1.88;;;8.50;99.90;;;;;;5093649;28;20301;-56
2023/03/11 10:47:21;;;;;;;3.65;1.50;;;8.70;99.90;;;;;;5093236;28;20583;-54
2023/03/11 10:49:48;;;;;;;4.07;1.80;;;9.00;99.90;;;;;;5093221;28;20650;-56
2023/03/11 10:52:14;;;;;;;3.70;1.77;;;9.20;99.90;;;;;;5093385;28;20204;-56
2023/03/11 10:54:45;;;;;;;6.80;2.22;;;9.40;99.90;;;;;;5093222;28;20181;-56
2023/03/11 10:57:25;;;;;;;6.20;2.05;;;9.50;99.90;;;;;;5093156;28;20644;-55
2023/03/11 10:59:56;;;;;;;7.72;2.30;;;9.70;99.90;;;;;;5093257;28;20175;-56
2023/03/11 11:02:31;;;;;;;5.75;1.90;;;9.70;99.90;;;;;;5092986;28;20287;-55
2023/03/11 11:05:31;;;;;;;3.55;1.60;;;9.80;99.90;;;;;;5093153;28;20268;-56
2023/03/11 11:08:05;;;;;;;4.68;1.95;;;9.60;99.90;;;;;;5092945;28;20174;-56
2023/03/11 11:10:33;;;;;;;5.55;1.80;;;9.50;99.90;;;;;;5092759;28;20256;-55
2023/03/11 11:13:07;;;;;;;4.55;1.70;;;9.40;99.90;;;;;;5091469;28;20557;-55
2023/03/11 11:15:37;;;;;;;4.43;1.60;;;9.30;99.90;;;;;;5092676;28;20268;-55
2023/03/11 11:18:19;;;;;;;6.70;2.00;;;9.50;99.90;;;;;;5092321;28;20254;-55
2023/03/11 11:20:55;;;;;;;6.60;2.08;;;9.40;99.90;;;;;;5092252;28;20173;-53
2023/03/11 11:23:29;;;;;;;5.18;2.03;;;9.60;99.90;;;;;;5091810;28;20234;-55
2023/03/11 11:25:58;;;;;;;6.18;2.30;;;9.70;97.90;;;;;;5092664;28;20162;-54
2023/03/11 11:28:24;;;;;;;8.65;1.85;;;9.50;98.40;;;;;;5092708;28;20173;-55
2023/03/11 11:30:54;;;;;;;6.68;2.20;;;9.50;98.40;;;;;;5092645;28;20570;-55
2023/03/11 11:33:48;;;;;;;6.22;1.70;;;9.70;99.90;;;;;;5092464;28;20178;-54
2023/03/11 11:36:15;;;;;;;5.60;1.73;;;9.50;98.80;;;;;;5093091;28;20196;-55
2023/03/11 11:38:41;;;;;;;3.08;1.67;;;9.30;97.20;;;;;;5092680;28;20193;-55
2023/03/11 11:41:14;;;;;;;3.50;1.58;;;9.30;98.60;;;;;;5092622;28;20223;-55
2023/03/11 11:43:52;;;;;;;3.00;1.42;;;9.10;98.20;;;;;;5092421;28;20636;-55
2023/03/11 11:46:23;;;;;;;4.03;1.63;;;8.90;96.00;;;;;;5092653;28;20181;-56
2023/03/11 11:49:04;;;;;;;4.43;1.80;;;8.90;99.40;;;;;;5092729;28;20236;-55
2023/03/11 11:51:39;;;;;;;4.38;1.77;;;8.90;97.80;;;;;;5095184;28;20169;-57
2023/03/11 11:54:07;;;;;;;5.88;2.83;;;8.90;96.60;;;;;;5096627;28;20611;-55
2023/03/11 11:56:33;;;;;;;5.32;1.83;;;9.00;97.90;;;;;;5096523;28;20174;-54
2023/03/11 11:58:59;;;;;;;4.60;1.60;;;9.20;99.90;;;;;;5096490;28;20177;-56
2023/03/11 12:01:45;;;;;;;4.15;1.67;;;9.40;98.50;;;;;;5096580;28;20208;-56
2023/03/11 12:04:32;;;;;;;5.10;1.70;;;9.30;96.30;;;;;;5096388;28;20664;-55
2023/03/11 12:07:07;;;;;;;5.13;1.58;;;9.40;98.30;;;;;;5096399;28;20206;-54
2023/03/11 12:09:56;;;;;;;6.20;1.58;;;9.60;99.10;;;;;;5096197;28;20598;-55
2023/03/11 12:12:36;;;;;;;7.32;1.88;;;9.80;99.00;;;;;;5096265;28;20216;-56
2023/03/11 12:15:20;;;;;;;3.20;1.40;;;9.70;97.60;;;;;;5096176;28;20170;-55
2023/03/11 12:17:49;;;;;;;5.22;1.75;;;9.80;98.80;;;;;;5096276;28;20243;-56
2023/03/11 12:20:33;;;;;;;3.65;1.98;;;9.90;99.00;;;;;;5096162;28;20219;-55
2023/03/11 12:23:08;;;;;;;6.88;1.92;;;9.80;99.90;;;;;;5096108;28;20221;-54
2023/03/11 12:25:43;;;;;;;7.13;2.00;;;9.70;99.90;;;;;;5095772;28;20170;-56
2023/03/11 12:28:29;;;;;;;5.47;1.90;;;9.80;99.90;;;;;;5096133;28;20693;-56
2023/03/11 12:30:59;;;;;;;5.60;2.08;;;9.60;97.00;;;;;;5096051;28;20264;-54
2023/03/11 12:33:39;;;;;;;4.72;1.80;;;9.70;99.50;;;;;;5095708;28;20182;-56
2023/03/11 12:36:06;;;;;;;3.25;1.90;;;9.70;99.10;;;;;;5095634;28;20166;-59
2023/03/11 12:38:44;;;;;;;7.95;1.88;;;9.20;96.90;;;;;;5095411;28;20561;-62
2023/03/11 12:41:13;;;;;;;11.13;2.80;;;9.20;99.90;;;;;;5095752;28;20227;-57
2023/03/11 12:43:41;;;;;;;4.32;2.05;;;9.20;99.90;;;;;;5094394;28;20200;-58
2023/03/11 12:46:19;;;;;;;3.53;1.60;;;9.30;99.90;;;;;;5094492;28;20509;-59
2023/03/11 12:48:53;;;;;;;5.60;1.88;;;9.30;98.90;;;;;;5095230;28;20703;-58
2023/03/11 12:51:39;;;;;;;3.83;1.90;;;9.40;99.10;;;;;;5095521;28;20255;-59
2023/03/11 12:54:29;;;;;;;4.88;1.75;;;9.80;99.90;;;;;;5095208;28;20667;-60
2023/03/11 12:57:01;;;;;;;5.40;1.70;;;10.00;99.90;;;;;;5095100;28;20223;-59
2023/03/11 12:59:45;;;;;;;5.35;2.35;;;10.10;99.90;;;;;;5095373;28;20633;-59
2023/03/11 13:02:48;;;;;;;6.80;1.98;;;10.10;99.90;;;;;;5094313;28;20204;-59
2023/03/11 13:05:46;;;;;;;6.18;2.30;;;10.20;99.90;;;;;;5093658;28;20193;-59
2023/03/11 13:08:46;;;;;;;5.40;2.13;;;10.30;98.60;;;;;;5095122;28;20170;-59